sensor_id;sensor_type;location;lat;lon;timestamp;temperature;humidity
27848;DHT22;15212;48.830;8.730;2024-02-16T00:01:04;11.50;99.90
27848;DHT22;15212;48.830;8.730;2024-02-16T00:03:33;11.50;99.90
27848;DHT22;15212;48.830;8.730;2024-02-16T00:06:01;11.40;99.90
27848;DHT22;15212;48.830;8.730;2024-02-16T00:08:30;11.50;99.90
27848;DHT22;15212;48.830;8.730;2024-02-16T00:11:00;11.50;99.90
27848;DHT22;15212;48.830;8.730;2024-02-16T00:13:29;11.40;99.90
27848;DHT22;15212;48.830;8.730;2024-02-16T00:15:58;11.40;99.90
27848;DHT22;15212;48.830;8.730;2024-02-16T00:18:27;11.40;99.90
27848;DHT22;15212;48.830;8.730;2024-02-16T00:20:55;11.40;99.90
27848;DHT22;15212;48.830;8.730;2024-02-16T00:23:23;11.50;99.90
27848;DHT22;15212;48.830;8.730;2024-02-16T00:25:52;11.50;99.90
27848;DHT22;15212;48.830;8.730;2024-02-16T00:28:20;11.50;99.90
27848;DHT22;15212;48.830;8.730;2024-02-16T00:30:49;11.50;99.90
27848;DHT22;15212;48.830;8.730;2024-02-16T00:33:17;11.40;99.90
27848;DHT22;15212;48.830;8.730;2024-02-16T00:35:45;11.40;99.90
27848;DHT22;15212;48.830;8.730;2024-02-16T00:38:15;11.50;99.90
27848;DHT22;15212;48.830;8.730;2024-02-16T00:40:44;11.40;99.90
27848;DHT22;15212;48.830;8.730;2024-02-16T00:43:12;11.40;99.90
27848;DHT22;15212;48.830;8.730;2024-02-16T00:45:40;11.40;99.90
27848;DHT22;15212;48.830;8.730;2024-02-16T00:48:11;11.40;99.90
27848;DHT22;15212;48.830;8.730;2024-02-16T00:50:39;11.40;99.90
27848;DHT22;15212;48.830;8.730;2024-02-16T00:53:09;11.30;99.90
27848;DHT22;15212;48.830;8.730;2024-02-16T00:55:37;11.30;99.90
27848;DHT22;15212;48.830;8.730;2024-02-16T00:58:08;11.30;99.90
27848;DHT22;15212;48.830;8.730;2024-02-16T01:00:36;11.30;99.90
27848;DHT22;15212;48.830;8.730;2024-02-16T01:03:04;11.40;99.90
27848;DHT22;15212;48.830;8.730;2024-02-16T01:05:33;11.30;99.90
27848;DHT22;15212;48.830;8.730;2024-02-16T01:08:02;11.40;99.90
27848;DHT22;15212;48.830;8.730;2024-02-16T01:10:30;11.40;99.90
27848;DHT22;15212;48.830;8.730;2024-02-16T01:12:59;11.30;99.90
27848;DHT22;15212;48.830;8.730;2024-02-16T01:15:27;11.30;99.90
27848;DHT22;15212;48.830;8.730;2024-02-16T01:17:55;11.20;99.90
27848;DHT22;15212;48.830;8.730;2024-02-16T01:20:25;11.10;99.90
27848;DHT22;15212;48.830;8.730;2024-02-16T01:22:56;11.10;99.90
27848;DHT22;15212;48.830;8.730;2024-02-16T01:25:24;11.10;99.90
27848;DHT22;15212;48.830;8.730;2024-02-16T01:27:53;11.00;99.90
27848;DHT22;15212;48.830;8.730;2024-02-16T01:30:21;10.90;99.90
27848;DHT22;15212;48.830;8.730;2024-02-16T01:32:50;10.80;99.90
27848;DHT22;15212;48.830;8.730;2024-02-16T01:35:18;10.70;99.90
27848;DHT22;15212;48.830;8.730;2024-02-16T01:37:47;10.50;99.90
27848;DHT22;15212;48.830;8.730;2024-02-16T01:40:16;10.40;99.90
27848;DHT22;15212;48.830;8.730;2024-02-16T01:42:44;10.30;99.90
27848;DHT22;15212;48.830;8.730;2024-02-16T01:45:15;10.10;99.90
27848;DHT22;15212;48.830;8.730;2024-02-16T01:47:44;10.00;99.90
27848;DHT22;15212;48.830;8.730;2024-02-16T01:50:16;10.00;99.90
27848;DHT22;15212;48.830;8.730;2024-02-16T01:52:46;10.00;99.90
27848;DHT22;15212;48.830;8.730;2024-02-16T01:55:16;9.90;99.90
27848;DHT22;15212;48.830;8.730;2024-02-16T01:57:46;10.00;99.90
27848;DHT22;15212;48.830;8.730;2024-02-16T02:00:16;10.00;99.90
27848;DHT22;15212;48.830;8.730;2024-02-16T02:02:45;10.00;99.90
27848;DHT22;15212;48.830;8.730;2024-02-16T02:05:14;9.90;99.90
27848;DHT22;15212;48.830;8.730;2024-02-16T02:07:43;9.90;99.90
27848;DHT22;15212;48.830;8.730;2024-02-16T02:10:11;9.90;99.90
27848;DHT22;15212;48.830;8.730;2024-02-16T02:12:42;9.90;99.90
27848;DHT22;15212;48.830;8.730;2024-02-16T02:15:11;10.00;99.90
27848;DHT22;15212;48.830;8.730;2024-02-16T02:17:39;10.10;99.90
27848;DHT22;15212;48.830;8.730;2024-02-16T02:20:08;10.10;99.90
27848;DHT22;15212;48.830;8.730;2024-02-16T02:22:40;10.00;99.90
27848;DHT22;15212;48.830;8.730;2024-02-16T02:25:09;10.00;99.90
27848;DHT22;15212;48.830;8.730;2024-02-16T02:27:38;10.00;99.90
27848;DHT22;15212;48.830;8.730;2024-02-16T02:30:07;10.00;99.90
27848;DHT22;15212;48.830;8.730;2024-02-16T02:32:35;10.00;99.90
27848;DHT22;15212;48.830;8.730;2024-02-16T02:35:06;10.00;99.90
27848;DHT22;15212;48.830;8.730;2024-02-16T02:37:35;10.00;99.90
27848;DHT22;15212;48.830;8.730;2024-02-16T02:40:04;10.00;99.90
27848;DHT22;15212;48.830;8.730;2024-02-16T02:42:35;9.90;99.90
27848;DHT22;15212;48.830;8.730;2024-02-16T02:45:04;9.90;99.90
27848;DHT22;15212;48.830;8.730;2024-02-16T02:47:33;9.90;99.90
27848;DHT22;15212;48.830;8.730;2024-02-16T02:50:02;9.90;99.90
27848;DHT22;15212;48.830;8.730;2024-02-16T02:52:31;9.90;99.90
27848;DHT22;15212;48.830;8.730;2024-02-16T02:55:00;9.90;99.90
27848;DHT22;15212;48.830;8.730;2024-02-16T02:57:28;9.90;99.90
27848;DHT22;15212;48.830;8.730;2024-02-16T03:00:04;9.90;99.90
27848;DHT22;15212;48.830;8.730;2024-02-16T03:02:35;9.90;99.90
27848;DHT22;15212;48.830;8.730;2024-02-16T03:05:07;9.80;99.90
27848;DHT22;15212;48.830;8.730;2024-02-16T03:07:35;9.80;99.90
27848;DHT22;15212;48.830;8.730;2024-02-16T03:10:05;9.90;99.90
27848;DHT22;15212;48.830;8.730;2024-02-16T03:12:35;9.90;99.90
27848;DHT22;15212;48.830;8.730;2024-02-16T03:15:04;9.90;99.90
27848;DHT22;15212;48.830;8.730;2024-02-16T03:17:33;9.90;99.90
27848;DHT22;15212;48.830;8.730;2024-02-16T03:20:01;10.00;99.90
27848;DHT22;15212;48.830;8.730;2024-02-16T03:22:30;9.90;99.90
27848;DHT22;15212;48.830;8.730;2024-02-16T03:24:58;9.90;99.90
27848;DHT22;15212;48.830;8.730;2024-02-16T03:27:27;9.90;99.90
27848;DHT22;15212;48.830;8.730;2024-02-16T03:29:55;9.90;99.90
27848;DHT22;15212;48.830;8.730;2024-02-16T03:32:23;9.90;99.90
27848;DHT22;15212;48.830;8.730;2024-02-16T03:34:52;9.90;99.90
27848;DHT22;15212;48.830;8.730;2024-02-16T03:37:21;9.80;99.90
27848;DHT22;15212;48.830;8.730;2024-02-16T03:39:49;9.80;99.90
27848;DHT22;15212;48.830;8.730;2024-02-16T03:42:17;9.80;99.90
27848;DHT22;15212;48.830;8.730;2024-02-16T03:44:46;9.80;99.90
27848;DHT22;15212;48.830;8.730;2024-02-16T03:47:14;9.70;99.90
27848;DHT22;15212;48.830;8.730;2024-02-16T03:49:43;9.80;99.90
27848;DHT22;15212;48.830;8.730;2024-02-16T03:52:11;9.70;99.90
27848;DHT22;15212;48.830;8.730;2024-02-16T03:54:40;9.70;99.90
27848;DHT22;15212;48.830;8.730;2024-02-16T03:57:10;9.70;99.90
27848;DHT22;15212;48.830;8.730;2024-02-16T03:59:38;9.80;99.90
27848;DHT22;15212;48.830;8.730;2024-02-16T04:02:07;9.80;99.90
27848;DHT22;15212;48.830;8.730;2024-02-16T04:04:36;9.90;99.90
27848;DHT22;15212;48.830;8.730;2024-02-16T04:07:04;9.90;99.90
27848;DHT22;15212;48.830;8.730;2024-02-16T04:09:35;9.90;99.90
27848;DHT22;15212;48.830;8.730;2024-02-16T04:12:04;10.00;99.90
27848;DHT22;15212;48.830;8.730;2024-02-16T04:14:32;9.90;99.90
27848;DHT22;15212;48.830;8.730;2024-02-16T04:17:01;9.90;99.90
27848;DHT22;15212;48.830;8.730;2024-02-16T04:19:30;9.80;99.90
27848;DHT22;15212;48.830;8.730;2024-02-16T04:21:59;9.80;99.90
27848;DHT22;15212;48.830;8.730;2024-02-16T04:24:27;9.80;99.90
27848;DHT22;15212;48.830;8.730;2024-02-16T04:26:56;9.70;99.90
27848;DHT22;15212;48.830;8.730;2024-02-16T04:29:24;9.60;99.90
27848;DHT22;15212;48.830;8.730;2024-02-16T04:31:52;9.70;99.90
27848;DHT22;15212;48.830;8.730;2024-02-16T04:34:21;9.60;99.90
27848;DHT22;15212;48.830;8.730;2024-02-16T04:36:49;9.50;99.90
27848;DHT22;15212;48.830;8.730;2024-02-16T04:39:18;9.50;99.90
27848;DHT22;15212;48.830;8.730;2024-02-16T04:41:46;9.50;99.90
27848;DHT22;15212;48.830;8.730;2024-02-16T04:44:14;9.50;99.90
27848;DHT22;15212;48.830;8.730;2024-02-16T04:46:44;9.50;99.90
27848;DHT22;15212;48.830;8.730;2024-02-16T04:49:12;9.40;99.90
27848;DHT22;15212;48.830;8.730;2024-02-16T04:51:40;9.40;99.90
27848;DHT22;15212;48.830;8.730;2024-02-16T04:54:09;9.40;99.90
27848;DHT22;15212;48.830;8.730;2024-02-16T04:56:38;9.30;99.90
27848;DHT22;15212;48.830;8.730;2024-02-16T04:59:07;9.30;99.90
27848;DHT22;15212;48.830;8.730;2024-02-16T05:01:35;9.30;99.90
27848;DHT22;15212;48.830;8.730;2024-02-16T05:04:04;9.30;99.90
27848;DHT22;15212;48.830;8.730;2024-02-16T05:06:33;9.30;99.90
27848;DHT22;15212;48.830;8.730;2024-02-16T05:09:08;9.20;99.90
27848;DHT22;15212;48.830;8.730;2024-02-16T05:11:37;9.10;99.90
27848;DHT22;15212;48.830;8.730;2024-02-16T05:14:05;9.00;99.90
27848;DHT22;15212;48.830;8.730;2024-02-16T05:16:34;9.00;99.90
27848;DHT22;15212;48.830;8.730;2024-02-16T05:19:03;9.00;99.90
27848;DHT22;15212;48.830;8.730;2024-02-16T05:21:31;8.90;99.90
27848;DHT22;15212;48.830;8.730;2024-02-16T05:24:00;8.80;99.90
27848;DHT22;15212;48.830;8.730;2024-02-16T05:26:29;8.80;99.90
27848;DHT22;15212;48.830;8.730;2024-02-16T05:28:57;8.80;99.90
27848;DHT22;15212;48.830;8.730;2024-02-16T05:31:26;8.70;99.90
27848;DHT22;15212;48.830;8.730;2024-02-16T05:33:54;8.70;99.90
27848;DHT22;15212;48.830;8.730;2024-02-16T05:36:23;8.60;99.90
27848;DHT22;15212;48.830;8.730;2024-02-16T05:38:53;8.60;99.90
27848;DHT22;15212;48.830;8.730;2024-02-16T05:41:22;8.50;99.90
27848;DHT22;15212;48.830;8.730;2024-02-16T05:43:51;8.50;99.90
27848;DHT22;15212;48.830;8.730;2024-02-16T05:46:20;8.50;99.90
27848;DHT22;15212;48.830;8.730;2024-02-16T05:48:48;8.40;99.90
27848;DHT22;15212;48.830;8.730;2024-02-16T05:51:17;8.30;99.90
27848;DHT22;15212;48.830;8.730;2024-02-16T05:53:45;8.20;99.90
27848;DHT22;15212;48.830;8.730;2024-02-16T05:56:14;8.20;99.90
27848;DHT22;15212;48.830;8.730;2024-02-16T05:58:42;8.10;99.90
27848;DHT22;15212;48.830;8.730;2024-02-16T06:01:11;8.10;99.90
27848;DHT22;15212;48.830;8.730;2024-02-16T06:03:42;8.00;99.90
27848;DHT22;15212;48.830;8.730;2024-02-16T06:06:10;7.90;99.90
27848;DHT22;15212;48.830;8.730;2024-02-16T06:08:39;7.80;99.90
27848;DHT22;15212;48.830;8.730;2024-02-16T06:11:08;7.80;99.90
27848;DHT22;15212;48.830;8.730;2024-02-16T06:13:37;7.80;99.90
27848;DHT22;15212;48.830;8.730;2024-02-16T06:16:06;7.80;99.90
27848;DHT22;15212;48.830;8.730;2024-02-16T06:18:36;7.90;99.90
27848;DHT22;15212;48.830;8.730;2024-02-16T06:21:04;7.90;99.90
27848;DHT22;15212;48.830;8.730;2024-02-16T06:23:33;7.90;99.90
27848;DHT22;15212;48.830;8.730;2024-02-16T06:26:01;7.90;99.90
27848;DHT22;15212;48.830;8.730;2024-02-16T06:28:29;7.90;99.90
27848;DHT22;15212;48.830;8.730;2024-02-16T06:30:58;8.00;99.90
27848;DHT22;15212;48.830;8.730;2024-02-16T06:33:26;8.10;99.90
27848;DHT22;15212;48.830;8.730;2024-02-16T06:35:55;8.10;99.90
27848;DHT22;15212;48.830;8.730;2024-02-16T06:38:23;8.10;99.90
27848;DHT22;15212;48.830;8.730;2024-02-16T06:40:51;8.00;99.90
27848;DHT22;15212;48.830;8.730;2024-02-16T06:43:20;8.10;99.90
27848;DHT22;15212;48.830;8.730;2024-02-16T06:45:48;8.00;99.90
27848;DHT22;15212;48.830;8.730;2024-02-16T06:48:16;8.00;99.90
27848;DHT22;15212;48.830;8.730;2024-02-16T06:50:45;8.00;99.90
27848;DHT22;15212;48.830;8.730;2024-02-16T06:53:13;8.00;99.90
27848;DHT22;15212;48.830;8.730;2024-02-16T06:55:42;8.00;99.90
27848;DHT22;15212;48.830;8.730;2024-02-16T06:58:10;8.00;99.90
27848;DHT22;15212;48.830;8.730;2024-02-16T07:00:38;8.10;99.90
27848;DHT22;15212;48.830;8.730;2024-02-16T07:03:08;8.10;99.90
27848;DHT22;15212;48.830;8.730;2024-02-16T07:05:37;8.20;99.90
27848;DHT22;15212;48.830;8.730;2024-02-16T07:08:06;8.20;99.90
27848;DHT22;15212;48.830;8.730;2024-02-16T07:10:35;8.20;99.90
27848;DHT22;15212;48.830;8.730;2024-02-16T07:13:03;8.30;99.90
27848;DHT22;15212;48.830;8.730;2024-02-16T07:15:32;8.40;99.90
27848;DHT22;15212;48.830;8.730;2024-02-16T07:18:00;8.50;99.90
27848;DHT22;15212;48.830;8.730;2024-02-16T07:20:30;8.60;99.90
27848;DHT22;15212;48.830;8.730;2024-02-16T07:22:58;8.70;99.90
27848;DHT22;15212;48.830;8.730;2024-02-16T07:25:27;8.80;99.90
27848;DHT22;15212;48.830;8.730;2024-02-16T07:27:55;8.90;99.90
27848;DHT22;15212;48.830;8.730;2024-02-16T07:30:24;9.00;99.90
27848;DHT22;15212;48.830;8.730;2024-02-16T07:32:52;9.10;99.90
27848;DHT22;15212;48.830;8.730;2024-02-16T07:35:21;9.30;99.90
27848;DHT22;15212;48.830;8.730;2024-02-16T07:37:51;9.40;99.90
27848;DHT22;15212;48.830;8.730;2024-02-16T07:40:20;9.50;99.90
27848;DHT22;15212;48.830;8.730;2024-02-16T07:42:49;9.60;99.90
27848;DHT22;15212;48.830;8.730;2024-02-16T07:45:17;9.70;99.90
27848;DHT22;15212;48.830;8.730;2024-02-16T07:47:46;9.70;99.90
27848;DHT22;15212;48.830;8.730;2024-02-16T07:50:19;9.80;99.90
27848;DHT22;15212;48.830;8.730;2024-02-16T07:52:49;10.00;99.90
27848;DHT22;15212;48.830;8.730;2024-02-16T07:55:17;10.20;99.90
27848;DHT22;15212;48.830;8.730;2024-02-16T07:57:47;10.40;99.90
27848;DHT22;15212;48.830;8.730;2024-02-16T08:00:15;10.50;99.90
27848;DHT22;15212;48.830;8.730;2024-02-16T08:02:44;10.60;99.90
27848;DHT22;15212;48.830;8.730;2024-02-16T08:05:12;10.80;99.90
27848;DHT22;15212;48.830;8.730;2024-02-16T08:07:41;11.00;99.90
27848;DHT22;15212;48.830;8.730;2024-02-16T08:10:10;11.10;99.90
27848;DHT22;15212;48.830;8.730;2024-02-16T08:12:39;11.30;99.90
27848;DHT22;15212;48.830;8.730;2024-02-16T08:15:07;11.40;99.90
27848;DHT22;15212;48.830;8.730;2024-02-16T08:17:37;11.60;99.90
27848;DHT22;15212;48.830;8.730;2024-02-16T08:20:07;11.70;99.90
27848;DHT22;15212;48.830;8.730;2024-02-16T08:22:36;11.90;99.90
27848;DHT22;15212;48.830;8.730;2024-02-16T08:25:05;12.10;99.90
27848;DHT22;15212;48.830;8.730;2024-02-16T08:27:34;12.30;99.90
27848;DHT22;15212;48.830;8.730;2024-02-16T08:30:05;12.50;99.90
27848;DHT22;15212;48.830;8.730;2024-02-16T08:32:35;12.70;99.90
27848;DHT22;15212;48.830;8.730;2024-02-16T08:35:03;12.80;99.90
27848;DHT22;15212;48.830;8.730;2024-02-16T08:37:32;13.00;99.90
27848;DHT22;15212;48.830;8.730;2024-02-16T08:40:01;13.20;99.90
27848;DHT22;15212;48.830;8.730;2024-02-16T08:42:30;13.40;99.90
27848;DHT22;15212;48.830;8.730;2024-02-16T08:44:59;13.70;99.90
27848;DHT22;15212;48.830;8.730;2024-02-16T08:47:27;13.90;99.90
27848;DHT22;15212;48.830;8.730;2024-02-16T08:49:56;14.00;99.90
27848;DHT22;15212;48.830;8.730;2024-02-16T08:52:24;14.30;99.90
27848;DHT22;15212;48.830;8.730;2024-02-16T08:54:53;14.40;99.90
27848;DHT22;15212;48.830;8.730;2024-02-16T08:57:22;14.50;99.90
27848;DHT22;15212;48.830;8.730;2024-02-16T08:59:50;14.60;99.90
27848;DHT22;15212;48.830;8.730;2024-02-16T09:02:19;14.60;99.90
27848;DHT22;15212;48.830;8.730;2024-02-16T09:04:48;14.70;99.90
27848;DHT22;15212;48.830;8.730;2024-02-16T09:07:17;14.80;99.90
27848;DHT22;15212;48.830;8.730;2024-02-16T09:09:45;15.00;99.90
27848;DHT22;15212;48.830;8.730;2024-02-16T09:12:14;15.10;99.90
27848;DHT22;15212;48.830;8.730;2024-02-16T09:14:42;15.20;99.90
27848;DHT22;15212;48.830;8.730;2024-02-16T09:17:11;15.20;99.90
27848;DHT22;15212;48.830;8.730;2024-02-16T09:19:40;15.20;99.90
27848;DHT22;15212;48.830;8.730;2024-02-16T09:22:08;15.30;99.90
27848;DHT22;15212;48.830;8.730;2024-02-16T09:24:36;15.20;99.90
27848;DHT22;15212;48.830;8.730;2024-02-16T09:27:07;15.30;99.90
27848;DHT22;15212;48.830;8.730;2024-02-16T09:29:36;15.20;99.90
27848;DHT22;15212;48.830;8.730;2024-02-16T09:32:05;15.10;99.90
27848;DHT22;15212;48.830;8.730;2024-02-16T09:34:34;15.00;99.90
27848;DHT22;15212;48.830;8.730;2024-02-16T09:37:02;15.00;99.90
27848;DHT22;15212;48.830;8.730;2024-02-16T09:39:31;15.00;99.90
27848;DHT22;15212;48.830;8.730;2024-02-16T09:42:00;15.00;99.90
27848;DHT22;15212;48.830;8.730;2024-02-16T09:44:29;15.00;99.90
27848;DHT22;15212;48.830;8.730;2024-02-16T09:47:00;15.00;99.90
27848;DHT22;15212;48.830;8.730;2024-02-16T09:49:30;14.90;99.90
27848;DHT22;15212;48.830;8.730;2024-02-16T09:51:59;14.90;99.90
27848;DHT22;15212;48.830;8.730;2024-02-16T09:54:32;14.90;99.90
27848;DHT22;15212;48.830;8.730;2024-02-16T09:57:05;14.90;99.90
27848;DHT22;15212;48.830;8.730;2024-02-16T09:59:33;14.90;99.90
27848;DHT22;15212;48.830;8.730;2024-02-16T10:02:03;14.90;99.90
27848;DHT22;15212;48.830;8.730;2024-02-16T10:04:33;14.90;99.90
27848;DHT22;15212;48.830;8.730;2024-02-16T10:07:02;14.90;99.90
27848;DHT22;15212;48.830;8.730;2024-02-16T10:09:32;14.90;99.90
27848;DHT22;15212;48.830;8.730;2024-02-16T10:12:00;14.90;99.90
27848;DHT22;15212;48.830;8.730;2024-02-16T10:14:29;15.00;99.90
27848;DHT22;15212;48.830;8.730;2024-02-16T10:17:05;15.00;99.90
27848;DHT22;15212;48.830;8.730;2024-02-16T10:19:35;15.10;99.90
27848;DHT22;15212;48.830;8.730;2024-02-16T10:22:11;15.10;99.90
27848;DHT22;15212;48.830;8.730;2024-02-16T10:24:40;15.20;99.90
27848;DHT22;15212;48.830;8.730;2024-02-16T10:27:15;15.20;99.90
27848;DHT22;15212;48.830;8.730;2024-02-16T10:29:45;15.20;99.90
27848;DHT22;15212;48.830;8.730;2024-02-16T10:32:18;15.30;99.90
27848;DHT22;15212;48.830;8.730;2024-02-16T10:34:48;15.40;99.90
27848;DHT22;15212;48.830;8.730;2024-02-16T10:37:17;15.40;99.90
27848;DHT22;15212;48.830;8.730;2024-02-16T10:39:45;15.40;99.90
27848;DHT22;15212;48.830;8.730;2024-02-16T10:42:15;15.50;99.90
27848;DHT22;15212;48.830;8.730;2024-02-16T10:44:46;15.50;99.90
27848;DHT22;15212;48.830;8.730;2024-02-16T10:47:15;15.50;99.90
27848;DHT22;15212;48.830;8.730;2024-02-16T10:49:44;15.50;99.90
27848;DHT22;15212;48.830;8.730;2024-02-16T10:52:13;15.50;99.90
27848;DHT22;15212;48.830;8.730;2024-02-16T10:54:43;15.60;99.90
27848;DHT22;15212;48.830;8.730;2024-02-16T10:57:11;15.60;99.90
27848;DHT22;15212;48.830;8.730;2024-02-16T10:59:44;15.60;99.90
27848;DHT22;15212;48.830;8.730;2024-02-16T11:02:14;15.70;99.90
27848;DHT22;15212;48.830;8.730;2024-02-16T11:04:45;15.70;99.90
27848;DHT22;15212;48.830;8.730;2024-02-16T11:07:17;15.70;99.90
27848;DHT22;15212;48.830;8.730;2024-02-16T11:09:47;15.70;99.90
27848;DHT22;15212;48.830;8.730;2024-02-16T11:12:15;15.80;99.90
27848;DHT22;15212;48.830;8.730;2024-02-16T11:14:46;15.70;99.90
27848;DHT22;15212;48.830;8.730;2024-02-16T11:17:23;15.70;99.90
27848;DHT22;15212;48.830;8.730;2024-02-16T11:19:54;15.90;99.90
27848;DHT22;15212;48.830;8.730;2024-02-16T11:22:26;16.10;99.90
27848;DHT22;15212;48.830;8.730;2024-02-16T11:24:54;16.40;99.90
27848;DHT22;15212;48.830;8.730;2024-02-16T11:27:23;16.60;99.90
27848;DHT22;15212;48.830;8.730;2024-02-16T11:29:52;16.80;99.90
27848;DHT22;15212;48.830;8.730;2024-02-16T11:32:22;16.90;99.90
27848;DHT22;15212;48.830;8.730;2024-02-16T11:34:51;16.90;99.90
27848;DHT22;15212;48.830;8.730;2024-02-16T11:37:20;16.90;99.90
27848;DHT22;15212;48.830;8.730;2024-02-16T11:39:55;16.80;99.90
27848;DHT22;15212;48.830;8.730;2024-02-16T11:42:23;16.80;99.90
27848;DHT22;15212;48.830;8.730;2024-02-16T11:44:53;16.60;99.90
27848;DHT22;15212;48.830;8.730;2024-02-16T11:47:24;16.50;99.90
27848;DHT22;15212;48.830;8.730;2024-02-16T11:50:07;16.40;99.90
27848;DHT22;15212;48.830;8.730;2024-02-16T11:52:38;16.10;99.90
27848;DHT22;15212;48.830;8.730;2024-02-16T11:55:09;16.10;99.90
27848;DHT22;15212;48.830;8.730;2024-02-16T11:57:39;16.00;99.90
27848;DHT22;15212;48.830;8.730;2024-02-16T12:00:08;15.90;99.90
27848;DHT22;15212;48.830;8.730;2024-02-16T12:02:40;15.80;99.90
27848;DHT22;15212;48.830;8.730;2024-02-16T12:05:08;15.80;99.90
27848;DHT22;15212;48.830;8.730;2024-02-16T12:07:37;15.80;99.90
27848;DHT22;15212;48.830;8.730;2024-02-16T12:10:06;15.70;99.90
27848;DHT22;15212;48.830;8.730;2024-02-16T12:12:35;15.70;99.90
27848;DHT22;15212;48.830;8.730;2024-02-16T12:15:05;15.70;99.90
27848;DHT22;15212;48.830;8.730;2024-02-16T12:17:34;15.70;99.90
27848;DHT22;15212;48.830;8.730;2024-02-16T12:20:10;15.70;99.90
27848;DHT22;15212;48.830;8.730;2024-02-16T12:22:34;15.80;99.90
27848;DHT22;15212;48.830;8.730;2024-02-16T12:25:03;15.80;99.90
27848;DHT22;15212;48.830;8.730;2024-02-16T12:27:32;15.80;99.90
27848;DHT22;15212;48.830;8.730;2024-02-16T12:30:00;15.90;99.90
27848;DHT22;15212;48.830;8.730;2024-02-16T12:32:30;15.90;99.90
27848;DHT22;15212;48.830;8.730;2024-02-16T12:34:58;15.90;99.90
27848;DHT22;15212;48.830;8.730;2024-02-16T12:37:27;15.80;99.90
27848;DHT22;15212;48.830;8.730;2024-02-16T12:39:55;15.80;99.90
27848;DHT22;15212;48.830;8.730;2024-02-16T12:42:23;15.80;99.90
27848;DHT22;15212;48.830;8.730;2024-02-16T12:44:52;15.70;99.90
27848;DHT22;15212;48.830;8.730;2024-02-16T12:47:20;15.60;99.90
27848;DHT22;15212;48.830;8.730;2024-02-16T12:49:48;15.60;99.90
27848;DHT22;15212;48.830;8.730;2024-02-16T12:52:19;15.70;99.90
27848;DHT22;15212;48.830;8.730;2024-02-16T12:54:52;15.70;99.90
27848;DHT22;15212;48.830;8.730;2024-02-16T12:57:21;15.60;99.90
27848;DHT22;15212;48.830;8.730;2024-02-16T12:59:49;15.60;99.90
27848;DHT22;15212;48.830;8.730;2024-02-16T13:02:17;15.50;99.90
27848;DHT22;15212;48.830;8.730;2024-02-16T13:04:46;15.50;99.90
27848;DHT22;15212;48.830;8.730;2024-02-16T13:07:14;15.40;99.90
27848;DHT22;15212;48.830;8.730;2024-02-16T13:09:43;15.50;99.90
27848;DHT22;15212;48.830;8.730;2024-02-16T13:12:11;15.40;99.90
27848;DHT22;15212;48.830;8.730;2024-02-16T13:14:40;15.40;99.90
27848;DHT22;15212;48.830;8.730;2024-02-16T13:17:08;15.40;99.90
27848;DHT22;15212;48.830;8.730;2024-02-16T13:19:36;15.40;99.90
27848;DHT22;15212;48.830;8.730;2024-02-16T13:22:05;15.40;99.90
27848;DHT22;15212;48.830;8.730;2024-02-16T13:24:33;15.30;99.90
27848;DHT22;15212;48.830;8.730;2024-02-16T13:27:02;15.20;99.90
27848;DHT22;15212;48.830;8.730;2024-02-16T13:29:32;15.20;99.90
27848;DHT22;15212;48.830;8.730;2024-02-16T13:32:00;15.20;99.90
27848;DHT22;15212;48.830;8.730;2024-02-16T13:34:30;15.20;99.90
27848;DHT22;15212;48.830;8.730;2024-02-16T13:36:58;15.20;99.90
27848;DHT22;15212;48.830;8.730;2024-02-16T13:39:27;15.20;99.90
27848;DHT22;15212;48.830;8.730;2024-02-16T13:41:55;15.10;99.90
27848;DHT22;15212;48.830;8.730;2024-02-16T13:44:24;15.00;99.90
27848;DHT22;15212;48.830;8.730;2024-02-16T13:46:52;15.00;99.90
27848;DHT22;15212;48.830;8.730;2024-02-16T13:49:21;14.90;99.90
27848;DHT22;15212;48.830;8.730;2024-02-16T13:51:49;14.90;99.90
27848;DHT22;15212;48.830;8.730;2024-02-16T13:54:18;14.70;99.90
27848;DHT22;15212;48.830;8.730;2024-02-16T13:56:48;14.70;99.90
27848;DHT22;15212;48.830;8.730;2024-02-16T13:59:16;14.60;99.90
27848;DHT22;15212;48.830;8.730;2024-02-16T14:01:45;14.60;99.90
27848;DHT22;15212;48.830;8.730;2024-02-16T14:04:15;14.60;99.90
27848;DHT22;15212;48.830;8.730;2024-02-16T14:06:43;14.60;99.90
27848;DHT22;15212;48.830;8.730;2024-02-16T14:09:12;14.60;99.90
27848;DHT22;15212;48.830;8.730;2024-02-16T14:11:41;14.60;99.90
27848;DHT22;15212;48.830;8.730;2024-02-16T14:14:09;14.60;99.90
27848;DHT22;15212;48.830;8.730;2024-02-16T14:16:38;14.70;99.90
27848;DHT22;15212;48.830;8.730;2024-02-16T14:19:06;14.60;99.90
27848;DHT22;15212;48.830;8.730;2024-02-16T14:21:35;14.60;99.90
27848;DHT22;15212;48.830;8.730;2024-02-16T14:24:03;14.50;99.90
27848;DHT22;15212;48.830;8.730;2024-02-16T14:26:33;14.50;99.90
27848;DHT22;15212;48.830;8.730;2024-02-16T14:29:02;14.40;99.90
27848;DHT22;15212;48.830;8.730;2024-02-16T14:31:31;14.40;99.90
27848;DHT22;15212;48.830;8.730;2024-02-16T14:34:03;14.30;99.90
27848;DHT22;15212;48.830;8.730;2024-02-16T14:36:31;14.30;99.90
27848;DHT22;15212;48.830;8.730;2024-02-16T14:39:00;14.30;99.90
27848;DHT22;15212;48.830;8.730;2024-02-16T14:41:29;14.30;99.90
27848;DHT22;15212;48.830;8.730;2024-02-16T14:43:57;14.20;99.90
27848;DHT22;15212;48.830;8.730;2024-02-16T14:46:27;14.10;99.90
27848;DHT22;15212;48.830;8.730;2024-02-16T14:48:56;14.10;99.90
27848;DHT22;15212;48.830;8.730;2024-02-16T14:51:24;14.00;99.90
27848;DHT22;15212;48.830;8.730;2024-02-16T14:53:53;14.00;99.90
27848;DHT22;15212;48.830;8.730;2024-02-16T14:56:21;13.90;99.90
27848;DHT22;15212;48.830;8.730;2024-02-16T14:58:50;13.90;99.90
27848;DHT22;15212;48.830;8.730;2024-02-16T15:01:18;13.90;99.90
27848;DHT22;15212;48.830;8.730;2024-02-16T15:03:47;13.90;99.90
27848;DHT22;15212;48.830;8.730;2024-02-16T15:06:16;13.90;99.90
27848;DHT22;15212;48.830;8.730;2024-02-16T15:08:44;13.90;99.90
27848;DHT22;15212;48.830;8.730;2024-02-16T15:11:13;13.80;99.90
27848;DHT22;15212;48.830;8.730;2024-02-16T15:13:43;13.80;99.90
27848;DHT22;15212;48.830;8.730;2024-02-16T15:16:11;13.80;99.90
27848;DHT22;15212;48.830;8.730;2024-02-16T15:18:39;13.70;99.90
27848;DHT22;15212;48.830;8.730;2024-02-16T15:21:09;13.70;99.90
27848;DHT22;15212;48.830;8.730;2024-02-16T15:23:37;13.60;99.90
27848;DHT22;15212;48.830;8.730;2024-02-16T15:26:05;13.50;99.90
27848;DHT22;15212;48.830;8.730;2024-02-16T15:28:35;13.50;99.90
27848;DHT22;15212;48.830;8.730;2024-02-16T15:31:05;13.40;99.90
27848;DHT22;15212;48.830;8.730;2024-02-16T15:33:33;13.40;99.90
27848;DHT22;15212;48.830;8.730;2024-02-16T15:36:01;13.30;99.90
27848;DHT22;15212;48.830;8.730;2024-02-16T15:38:30;13.40;99.90
27848;DHT22;15212;48.830;8.730;2024-02-16T15:40:58;13.30;99.90
27848;DHT22;15212;48.830;8.730;2024-02-16T15:43:27;13.30;99.90
27848;DHT22;15212;48.830;8.730;2024-02-16T15:45:55;13.30;99.90